Time;durP1;ratioP1;P1;durP2;ratioP2;P2;SDS_P1;SDS_P2;PMS_P1;PMS_P2;Temp;Humidity;BMP_temperature;BMP_pressure;BME280_temperature;BME280_humidity;BME280_pressure;Samples;Min_cycle;Max_cycle;Signal;HPM_P1;HPM_P2
2022/09/17 00:01:00;;;;;;;7.50;2.30;;;10.80;90.60;;;;;;5136354;27;20023;-46
2022/09/17 00:03:27;;;;;;;8.43;2.63;;;10.80;90.70;;;;;;5135807;27;20053;-46
2022/09/17 00:06:04;;;;;;;8.93;2.25;;;10.80;90.80;;;;;;5135999;27;20031;-47
2022/09/17 00:08:30;;;;;;;6.60;1.73;;;10.80;90.80;;;;;;5136515;27;20093;-47
2022/09/17 00:10:55;;;;;;;8.63;3.22;;;10.80;90.80;;;;;;5135975;27;20131;-47
2022/09/17 00:13:21;;;;;;;10.68;3.30;;;10.70;91.00;;;;;;5134492;27;20056;-48
2022/09/17 00:15:47;;;;;;;13.20;2.83;;;10.70;91.20;;;;;;5135856;27;20463;-47
2022/09/17 00:18:13;;;;;;;6.65;2.30;;;10.70;91.20;;;;;;5135945;27;20035;-47
2022/09/17 00:20:41;;;;;;;9.32;2.55;;;10.60;91.10;;;;;;5136182;27;20027;-48
2022/09/17 00:23:08;;;;;;;9.90;2.70;;;10.60;91.30;;;;;;5134683;27;20080;-46
2022/09/17 00:25:37;;;;;;;20.45;2.78;;;10.50;91.30;;;;;;5135727;27;20372;-45
2022/09/17 00:28:02;;;;;;;7.35;2.42;;;10.40;91.50;;;;;;5134322;27;20052;-48
2022/09/17 00:30:28;;;;;;;9.35;2.38;;;10.30;91.50;;;;;;5135651;27;20499;-47
2022/09/17 00:32:56;;;;;;;17.85;3.50;;;10.40;91.50;;;;;;5135629;27;20031;-46
2022/09/17 00:35:23;;;;;;;10.10;2.40;;;10.30;91.30;;;;;;5135697;27;20027;-47
2022/09/17 00:37:48;;;;;;;10.15;2.97;;;10.40;91.30;;;;;;5135798;27;20035;-47
2022/09/17 00:40:14;;;;;;;12.70;2.88;;;10.50;91.10;;;;;;5135397;27;20382;-48
2022/09/17 00:42:39;;;;;;;15.90;2.42;;;10.50;91.10;;;;;;5135188;27;20027;-46
2022/09/17 00:45:06;;;;;;;13.90;4.05;;;10.50;91.00;;;;;;5135365;27;20104;-46
2022/09/17 00:47:59;;;;;;;11.50;2.53;;;10.50;91.00;;;;;;5135493;27;20023;-49
2022/09/17 00:50:33;;;;;;;8.50;2.22;;;10.50;91.00;;;;;;5132816;27;20039;-47
2022/09/17 00:53:05;;;;;;;15.48;2.50;;;10.40;91.10;;;;;;5135412;27;20023;-47
2022/09/17 00:55:36;;;;;;;15.43;3.33;;;10.40;91.10;;;;;;5135405;27;20027;-48
2022/09/17 00:58:04;;;;;;;12.80;2.15;;;10.40;91.20;;;;;;5135441;27;20027;-48
2022/09/17 01:00:31;;;;;;;14.98;2.40;;;10.30;91.40;;;;;;5136269;27;20057;-47
2022/09/17 01:02:57;;;;;;;9.82;1.88;;;10.30;91.50;;;;;;5134910;27;20043;-47
2022/09/17 01:05:51;;;;;;;12.90;2.58;;;10.20;91.60;;;;;;5135333;27;20027;-48
2022/09/17 01:08:29;;;;;;;7.22;2.42;;;10.20;91.70;;;;;;5134864;27;20094;-47
2022/09/17 01:11:13;;;;;;;13.40;1.92;;;10.20;91.90;;;;;;5133078;27;20523;-47
2022/09/17 01:14:04;;;;;;;14.27;3.58;;;10.20;91.90;;;;;;5135013;27;20088;-47
2022/09/17 01:17:07;;;;;;;16.98;3.17;;;10.10;92.00;;;;;;5135051;27;20084;-48
2022/09/17 01:20:08;;;;;;;24.48;4.47;;;10.10;92.20;;;;;;5134481;27;20479;-47
2022/09/17 01:22:45;;;;;;;;;;;10.10;92.20;;;;;;5134967;27;20015;-48
2022/09/17 01:25:24;;;;;;;14.30;2.67;;;10.10;92.10;;;;;;5135338;27;19922;-47
2022/09/17 01:27:55;;;;;;;16.13;2.30;;;10.00;92.10;;;;;;5134256;27;20026;-46
2022/09/17 01:30:37;;;;;;;15.43;3.47;;;10.00;92.20;;;;;;5134432;27;20523;-47
2022/09/17 01:33:32;;;;;;;10.77;2.85;;;10.00;92.30;;;;;;5134444;27;20044;-47
2022/09/17 01:36:21;;;;;;;15.93;3.42;;;10.10;92.20;;;;;;5125803;27;20041;-49
2022/09/17 01:39:02;;;;;;;11.80;2.97;;;10.00;92.20;;;;;;5134403;27;20051;-47
2022/09/17 01:41:36;;;;;;;11.02;2.20;;;10.00;92.30;;;;;;5134751;27;20187;-46
2022/09/17 01:44:17;;;;;;;10.73;2.58;;;10.00;92.30;;;;;;5134134;27;20023;-46
2022/09/17 01:46:48;;;;;;;21.25;3.20;;;10.10;92.30;;;;;;5134403;27;20027;-46
2022/09/17 01:49:15;;;;;;;12.02;2.80;;;10.10;92.30;;;;;;5134343;27;20023;-46
2022/09/17 01:51:47;;;;;;;16.13;3.35;;;10.20;92.30;;;;;;5133975;27;20015;-48
2022/09/17 01:54:30;;;;;;;10.10;2.80;;;10.10;92.10;;;;;;5132884;27;20033;-47
2022/09/17 01:57:12;;;;;;;14.85;3.28;;;10.20;92.00;;;;;;5134191;27;20466;-48
2022/09/17 01:59:49;;;;;;;11.43;2.90;;;10.20;91.90;;;;;;5134345;27;20020;-47
2022/09/17 02:02:44;;;;;;;10.82;2.20;;;10.20;92.00;;;;;;5134075;28;20451;-48
2022/09/17 02:05:33;;;;;;;10.27;3.33;;;10.20;92.00;;;;;;5134222;27;20011;-47
2022/09/17 02:08:13;;;;;;;13.60;2.70;;;10.20;92.00;;;;;;5124459;27;20039;-48
2022/09/17 02:10:44;;;;;;;9.45;2.83;;;10.30;91.90;;;;;;5134349;28;20019;-46
2022/09/17 02:13:27;;;;;;;15.98;2.47;;;10.30;91.90;;;;;;5134387;28;20031;-47
2022/09/17 02:16:04;;;;;;;12.60;2.67;;;10.30;91.90;;;;;;5133756;28;20531;-47
2022/09/17 02:18:49;;;;;;;10.55;1.85;;;10.30;91.90;;;;;;5132461;28;20023;-47
2022/09/17 02:21:53;;;;;;;17.73;2.55;;;10.30;91.70;;;;;;5133035;28;20068;-46
2022/09/17 02:24:22;;;;;;;11.52;2.50;;;10.30;91.50;;;;;;5135759;27;20050;-47
2022/09/17 02:26:58;;;;;;;7.63;2.47;;;10.30;91.70;;;;;;5138168;27;20023;-46
2022/09/17 02:29:31;;;;;;;15.65;3.03;;;10.20;91.80;;;;;;5136790;27;20027;-47
2022/09/17 02:31:56;;;;;;;9.88;2.90;;;10.30;91.80;;;;;;5136622;27;20477;-47
2022/09/17 02:34:25;;;;;;;10.52;2.83;;;10.30;91.80;;;;;;5138087;27;20019;-47
2022/09/17 02:36:51;;;;;;;10.73;4.32;;;10.30;91.80;;;;;;5137670;27;20106;-47
2022/09/17 02:39:17;;;;;;;13.02;3.28;;;10.40;91.70;;;;;;5137605;27;20059;-48
2022/09/17 02:41:50;;;;;;;15.23;2.55;;;10.40;91.40;;;;;;5137619;27;20027;-47
2022/09/17 02:44:32;;;;;;;9.57;1.83;;;10.40;91.10;;;;;;5137866;27;20027;-46
2022/09/17 02:47:24;;;;;;;10.02;2.28;;;10.40;91.00;;;;;;5137623;27;20050;-47
2022/09/17 02:50:10;;;;;;;12.25;3.30;;;10.50;90.90;;;;;;5137401;27;20019;-47
2022/09/17 02:52:43;;;;;;;7.95;2.83;;;10.50;90.90;;;;;;5135991;27;20027;-47
2022/09/17 02:55:25;;;;;;;15.50;3.10;;;10.50;90.90;;;;;;5137303;27;20119;-47
2022/09/17 02:58:16;;;;;;;18.23;3.10;;;10.50;90.70;;;;;;5137353;27;20050;-47
2022/09/17 03:00:43;;;;;;;7.90;2.05;;;10.50;90.70;;;;;;5137460;27;20031;-47
2022/09/17 03:03:29;;;;;;;9.93;2.65;;;10.40;90.60;;;;;;5137063;27;20444;-47
2022/09/17 03:05:55;;;;;;;17.13;2.45;;;10.40;90.80;;;;;;5137312;27;20424;-46
2022/09/17 03:08:39;;;;;;;15.40;2.92;;;10.40;90.90;;;;;;5137396;27;20030;-48
2022/09/17 03:11:07;;;;;;;17.35;4.20;;;10.30;91.00;;;;;;5137024;27;20166;-48
2022/09/17 03:13:34;;;;;;;7.68;2.03;;;10.30;90.90;;;;;;5137317;27;20035;-47
2022/09/17 03:16:01;;;;;;;16.80;3.28;;;10.30;90.90;;;;;;5136918;27;20115;-46
2022/09/17 03:18:26;;;;;;;12.65;2.47;;;10.20;91.00;;;;;;5137317;27;20546;-47
2022/09/17 03:20:52;;;;;;;10.25;3.08;;;10.30;90.80;;;;;;5137446;27;20062;-47
2022/09/17 03:23:17;;;;;;;10.45;2.25;;;10.30;90.60;;;;;;5137066;27;20375;-47
2022/09/17 03:25:45;;;;;;;14.98;3.25;;;10.40;90.60;;;;;;5135571;27;20023;-46
2022/09/17 03:28:10;;;;;;;16.45;3.70;;;10.40;90.30;;;;;;5136756;27;20026;-47
2022/09/17 03:30:36;;;;;;;18.65;2.95;;;10.50;90.30;;;;;;5136751;27;20028;-47
2022/09/17 03:33:02;;;;;;;12.18;2.33;;;10.40;90.00;;;;;;5137527;27;20030;-46
2022/09/17 03:35:27;;;;;;;15.30;2.95;;;10.50;89.50;;;;;;5136470;27;20063;-47
2022/09/17 03:37:53;;;;;;;7.93;2.13;;;10.60;89.30;;;;;;5136610;27;20351;-47
2022/09/17 03:40:19;;;;;;;13.38;3.30;;;10.70;89.00;;;;;;5136439;27;20050;-48
2022/09/17 03:42:44;;;;;;;5.38;1.88;;;10.60;88.90;;;;;;5135270;27;20055;-47
2022/09/17 03:45:10;;;;;;;11.32;2.35;;;10.70;88.70;;;;;;5136442;27;20015;-47
2022/09/17 03:47:36;;;;;;;13.25;2.92;;;10.60;88.70;;;;;;5136477;27;20023;-47
2022/09/17 03:50:03;;;;;;;11.65;2.42;;;10.60;88.70;;;;;;5136421;27;20027;-48
2022/09/17 03:52:29;;;;;;;7.65;1.80;;;10.60;88.60;;;;;;5136465;27;20066;-47
2022/09/17 03:54:54;;;;;;;13.05;2.05;;;10.50;88.70;;;;;;5136564;27;20098;-47
2022/09/17 03:57:21;;;;;;;19.75;3.15;;;10.50;88.70;;;;;;5136580;27;20495;-48
2022/09/17 03:59:47;;;;;;;7.03;1.75;;;10.50;88.90;;;;;;5135919;27;20127;-48
2022/09/17 04:02:13;;;;;;;9.80;1.80;;;10.40;88.90;;;;;;5135973;27;20069;-47
2022/09/17 04:04:38;;;;;;;15.27;2.33;;;10.40;89.00;;;;;;5136050;27;20467;-47
2022/09/17 04:07:04;;;;;;;12.52;1.92;;;10.40;88.80;;;;;;5135993;27;20027;-47
2022/09/17 04:09:30;;;;;;;11.80;2.33;;;10.40;88.70;;;;;;5136028;27;20023;-47
2022/09/17 04:11:56;;;;;;;14.15;2.08;;;10.30;89.30;;;;;;5135934;27;20054;-48
2022/09/17 04:14:22;;;;;;;7.43;1.48;;;10.30;89.50;;;;;;5134561;27;20030;-48
2022/09/17 04:16:47;;;;;;;14.52;1.90;;;10.20;89.60;;;;;;5135795;27;20051;-47
2022/09/17 04:19:13;;;;;;;7.00;2.80;;;10.30;89.60;;;;;;5135956;27;20030;-47
2022/09/17 04:21:38;;;;;;;6.63;1.58;;;10.30;89.60;;;;;;5135559;27;20467;-52
2022/09/17 04:24:04;;;;;;;9.90;1.70;;;10.30;89.10;;;;;;5135550;27;20011;-48
2022/09/17 04:26:30;;;;;;;14.35;2.45;;;10.40;88.70;;;;;;5135561;27;20569;-48
2022/09/17 04:28:56;;;;;;;15.13;3.55;;;10.40;88.40;;;;;;5135821;27;20039;-48
2022/09/17 04:31:23;;;;;;;13.43;2.17;;;10.50;88.20;;;;;;5135709;27;20015;-47
2022/09/17 04:33:49;;;;;;;11.10;2.20;;;10.50;87.80;;;;;;5134189;27;20027;-47
2022/09/17 04:36:15;;;;;;;21.35;3.13;;;10.60;87.70;;;;;;5135422;27;20053;-47
2022/09/17 04:38:41;;;;;;;21.10;2.80;;;10.60;87.30;;;;;;5135336;27;20027;-46
2022/09/17 04:41:07;;;;;;;9.80;1.92;;;10.70;87.10;;;;;;5135531;27;20046;-48
2022/09/17 04:43:33;;;;;;;9.13;1.40;;;10.70;87.10;;;;;;5135104;27;20031;-48
2022/09/17 04:45:59;;;;;;;8.68;1.48;;;10.70;86.90;;;;;;5134819;27;20027;-47
2022/09/17 04:48:25;;;;;;;7.20;1.38;;;10.70;86.90;;;;;;5135213;27;20138;-47
2022/09/17 04:50:50;;;;;;;9.05;1.70;;;10.60;87.00;;;;;;5135143;27;20126;-47
2022/09/17 04:53:17;;;;;;;10.18;1.92;;;10.60;87.20;;;;;;5133960;27;20027;-47
2022/09/17 18:00:24;;;;;;;6.30;1.55;;;11.60;79.20;;;;;;5111385;27;20422;-48
2022/09/17 18:02:50;;;;;;;2.17;0.82;;;11.60;79.60;;;;;;5110897;28;20024;-49
2022/09/17 18:05:16;;;;;;;1.83;0.93;;;11.70;79.50;;;;;;5110327;28;20024;-46
2022/09/17 18:07:42;;;;;;;6.03;1.40;;;11.70;79.50;;;;;;5110481;28;20020;-48
2022/09/17 18:10:08;;;;;;;9.00;1.30;;;11.80;79.30;;;;;;5110535;28;20088;-47
2022/09/17 18:12:35;;;;;;;5.20;1.30;;;11.80;79.00;;;;;;5110504;28;20026;-47
2022/09/17 18:15:02;;;;;;;3.75;1.48;;;11.80;79.00;;;;;;5110883;28;20416;-48
2022/09/17 18:17:30;;;;;;;4.40;1.65;;;11.80;78.80;;;;;;5110388;28;20035;-47
2022/09/17 18:19:55;;;;;;;7.50;1.08;;;11.90;78.60;;;;;;5109149;28;20028;-47
2022/09/17 18:22:21;;;;;;;3.83;1.15;;;12.00;78.70;;;;;;5110224;28;20068;-47
2022/09/17 18:24:48;;;;;;;6.38;1.20;;;12.00;78.40;;;;;;5110780;28;20085;-49
2022/09/17 18:27:14;;;;;;;6.53;1.58;;;12.10;78.20;;;;;;5109105;28;20355;-46
2022/09/17 18:29:39;;;;;;;11.98;2.92;;;12.30;77.80;;;;;;5110765;28;20024;-47
2022/09/17 18:32:05;;;;;;;2.92;1.20;;;12.20;77.90;;;;;;5110556;28;20091;-46
2022/09/17 18:34:31;;;;;;;6.88;1.98;;;12.30;78.20;;;;;;5109756;28;20118;-59
2022/09/17 18:36:57;;;;;;;6.05;1.35;;;12.30;78.70;;;;;;5111230;28;20333;-46
2022/09/17 18:39:23;;;;;;;6.13;1.42;;;12.30;78.90;;;;;;5111081;28;20028;-47
2022/09/17 18:41:48;;;;;;;5.45;1.20;;;12.30;79.20;;;;;;5110613;28;20344;-48
2022/09/17 18:44:14;;;;;;;9.73;1.30;;;12.30;79.70;;;;;;5110262;28;20031;-46
2022/09/17 18:46:41;;;;;;;9.73;1.42;;;12.20;80.00;;;;;;5110367;28;20030;-47
2022/09/17 18:49:06;;;;;;;8.38;2.05;;;12.20;80.00;;;;;;5110123;28;20023;-49
2022/09/17 18:51:32;;;;;;;5.78;1.67;;;12.30;79.90;;;;;;5110187;28;20430;-47
2022/09/17 18:53:58;;;;;;;12.00;1.83;;;12.30;80.30;;;;;;5109509;28;20532;-48
2022/09/17 18:56:27;;;;;;;8.85;2.10;;;12.20;80.60;;;;;;5110202;28;20039;-47
2022/09/17 18:58:56;;;;;;;7.97;2.70;;;12.00;81.00;;;;;;5108208;28;20044;-48
2022/09/17 19:01:28;;;;;;;13.88;2.10;;;12.00;81.40;;;;;;5110460;28;20468;-48
2022/09/17 19:03:55;;;;;;;7.88;2.42;;;12.00;81.30;;;;;;5108663;28;20020;-49
2022/09/17 19:06:21;;;;;;;5.55;1.52;;;11.90;81.30;;;;;;5108486;28;20145;-46
2022/09/17 19:08:46;;;;;;;8.95;1.50;;;11.90;82.00;;;;;;5109855;28;20031;-47
2022/09/17 19:11:12;;;;;;;13.00;1.92;;;11.80;82.30;;;;;;5099586;28;20039;-47
2022/09/17 19:13:43;;;;;;;13.25;1.70;;;11.80;82.60;;;;;;5094623;28;20028;-47
2022/09/17 19:16:11;;;;;;;3.90;1.95;;;11.80;82.90;;;;;;5095940;28;20373;-47
2022/09/17 19:18:37;;;;;;;11.50;1.88;;;11.80;82.30;;;;;;5095853;28;20483;-47
2022/09/17 19:21:11;;;;;;;9.70;1.90;;;11.80;81.80;;;;;;5096061;28;20026;-48
2022/09/17 19:23:45;;;;;;;5.47;1.42;;;11.80;80.80;;;;;;5094547;28;20024;-47
2022/09/17 19:26:25;;;;;;;10.00;2.50;;;11.90;80.20;;;;;;5094571;28;20433;-47
2022/09/17 19:28:52;;;;;;;14.35;2.42;;;11.90;80.40;;;;;;5096118;28;20035;-46
2022/09/17 19:31:18;;;;;;;8.25;1.67;;;11.80;80.00;;;;;;5095797;28;20024;-49
2022/09/17 19:33:44;;;;;;;7.22;1.35;;;11.90;79.40;;;;;;5095520;28;20074;-47
2022/09/17 19:36:14;;;;;;;6.32;1.50;;;11.90;79.10;;;;;;5095746;28;20032;-47
2022/09/17 19:38:41;;;;;;;5.75;1.77;;;11.90;79.30;;;;;;5094067;28;20391;-47
2022/09/17 19:41:11;;;;;;;10.45;2.03;;;11.90;79.50;;;;;;5095370;28;20052;-46
2022/09/17 19:43:37;;;;;;;4.25;1.77;;;11.90;79.50;;;;;;5094357;28;20031;-47
2022/09/17 19:46:05;;;;;;;2.70;1.35;;;11.90;79.50;;;;;;5095219;28;20016;-47
2022/09/17 19:48:31;;;;;;;8.68;2.20;;;12.00;79.20;;;;;;5095393;28;20024;-47
2022/09/17 19:50:57;;;;;;;9.82;3.45;;;11.90;79.00;;;;;;5095263;28;20028;-48
2022/09/17 19:53:26;;;;;;;11.68;1.92;;;11.90;79.10;;;;;;5095310;28;20024;-38
2022/09/17 19:55:52;;;;;;;10.77;1.48;;;12.00;78.90;;;;;;5093804;28;20027;-38
2022/09/17 19:58:18;;;;;;;8.80;1.40;;;12.00;78.80;;;;;;5094809;28;20044;-38
2022/09/17 20:00:44;;;;;;;12.43;1.45;;;12.00;78.20;;;;;;5095137;28;20478;-38
2022/09/17 20:03:11;;;;;;;15.32;1.60;;;12.00;78.00;;;;;;5095457;28;20020;-38
2022/09/17 20:05:36;;;;;;;7.07;1.48;;;12.10;78.20;;;;;;5093488;28;20056;-40
2022/09/17 20:08:03;;;;;;;11.00;1.50;;;12.10;78.30;;;;;;5094766;28;20079;-38
2022/09/17 20:10:29;;;;;;;13.52;1.80;;;12.00;78.60;;;;;;5095056;28;20020;-38
2022/09/17 20:12:56;;;;;;;7.15;1.63;;;12.00;78.20;;;;;;5094616;28;20073;-39
2022/09/17 20:15:21;;;;;;;8.73;1.77;;;12.10;78.40;;;;;;5094580;28;20056;-38
2022/09/17 20:17:47;;;;;;;11.07;1.77;;;11.90;78.50;;;;;;5094689;28;20035;-38
2022/09/17 20:20:13;;;;;;;12.35;1.80;;;11.80;79.10;;;;;;5094486;28;20032;-38
2022/09/17 20:22:38;;;;;;;7.38;1.27;;;11.80;79.20;;;;;;5093843;28;20024;-39
2022/09/17 20:25:05;;;;;;;4.88;2.10;;;11.80;79.40;;;;;;5092954;28;20020;-40
2022/09/17 20:27:30;;;;;;;11.35;1.65;;;11.80;79.60;;;;;;5095273;28;20468;-40
2022/09/17 20:29:56;;;;;;;5.32;1.33;;;11.90;79.80;;;;;;5094987;28;20114;-39
2022/09/17 20:32:22;;;;;;;9.20;2.38;;;11.90;79.80;;;;;;5094296;28;20103;-39
2022/09/17 20:34:48;;;;;;;16.38;3.13;;;11.90;80.30;;;;;;5094265;28;20031;-39
2022/09/17 20:37:14;;;;;;;5.60;1.80;;;11.80;80.50;;;;;;5094844;28;20024;-39
2022/09/17 20:39:40;;;;;;;7.97;1.58;;;11.80;81.20;;;;;;5094836;28;20028;-39
2022/09/17 20:42:06;;;;;;;6.80;1.48;;;11.80;81.80;;;;;;5094388;28;20103;-39
2022/09/17 20:44:32;;;;;;;16.13;2.08;;;11.80;82.00;;;;;;5094094;28;20026;-38
2022/09/17 20:46:57;;;;;;;10.18;2.20;;;11.80;82.20;;;;;;5094089;28;20099;-40
2022/09/17 20:49:23;;;;;;;9.77;2.08;;;11.60;83.00;;;;;;5094078;28;20111;-38
2022/09/17 20:51:49;;;;;;;4.07;1.98;;;11.50;82.80;;;;;;5093891;28;20072;-39
2022/09/17 20:54:14;;;;;;;6.18;2.10;;;11.60;82.80;;;;;;5094165;28;20038;-40
2022/09/17 20:56:40;;;;;;;9.55;1.65;;;11.60;82.40;;;;;;5093885;28;20414;-39
2022/09/17 20:59:23;;;;;;;9.02;1.90;;;11.60;82.50;;;;;;5093772;28;20181;-40
2022/09/17 21:01:49;;;;;;;5.07;1.30;;;11.60;82.00;;;;;;5094203;28;20024;-40
2022/09/17 21:04:20;;;;;;;14.52;2.28;;;11.60;82.00;;;;;;5094266;28;20096;-40
2022/09/17 21:06:49;;;;;;;4.07;1.42;;;11.60;82.00;;;;;;5092518;28;20472;-40
2022/09/17 21:09:15;;;;;;;6.63;2.15;;;11.50;82.10;;;;;;5093532;28;20024;-41
2022/09/17 21:11:44;;;;;;;6.68;1.55;;;11.40;82.40;;;;;;5094039;28;20051;-38
2022/09/17 21:14:10;;;;;;;3.88;1.33;;;11.40;82.50;;;;;;5093572;28;20059;-39
2022/09/17 21:16:37;;;;;;;6.85;1.10;;;11.40;82.70;;;;;;5093546;28;20061;-39
2022/09/17 21:19:06;;;;;;;4.80;2.55;;;11.30;82.90;;;;;;5092521;28;20028;-39
2022/09/17 21:21:33;;;;;;;5.13;1.60;;;11.30;83.10;;;;;;5093981;28;20023;-39
2022/09/17 21:24:03;;;;;;;7.30;1.85;;;11.30;83.00;;;;;;5093592;28;20024;-39
2022/09/17 21:26:30;;;;;;;10.68;2.15;;;11.30;83.40;;;;;;5093454;28;20020;-39
2022/09/17 21:28:56;;;;;;;2.53;1.00;;;11.30;83.50;;;;;;5092318;28;20502;-39
2022/09/17 21:31:27;;;;;;;6.95;1.30;;;11.20;83.70;;;;;;5093311;28;20027;-39
2022/09/17 21:33:58;;;;;;;4.70;1.23;;;11.20;84.10;;;;;;5093031;28;20085;-40
2022/09/17 21:36:26;;;;;;;7.25;1.45;;;11.10;84.10;;;;;;5093637;28;20047;-40
2022/09/17 21:38:54;;;;;;;6.53;1.60;;;11.10;84.30;;;;;;5093155;28;20020;-38
2022/09/17 21:41:20;;;;;;;4.63;1.13;;;11.10;84.40;;;;;;5093168;28;20028;-40
2022/09/17 21:43:47;;;;;;;6.03;1.60;;;11.10;84.50;;;;;;5093306;28;20024;-39
2022/09/17 21:46:19;;;;;;;6.22;1.15;;;11.00;84.60;;;;;;5093587;28;20020;-38
2022/09/17 21:48:49;;;;;;;9.07;1.90;;;11.00;84.90;;;;;;5093581;28;20475;-38
2022/09/17 21:51:19;;;;;;;;;;;10.90;85.10;;;;;;5094207;28;20165;-38
2022/09/17 21:53:49;;;;;;;5.83;1.43;;;10.80;85.70;;;;;;5093284;28;20315;-40
2022/09/17 21:56:17;;;;;;;6.30;2.63;;;10.80;85.90;;;;;;5093331;28;20027;-37
2022/09/17 21:58:44;;;;;;;6.75;1.08;;;10.80;86.30;;;;;;5093105;28;20044;-38
2022/09/17 22:01:12;;;;;;;10.13;2.53;;;10.70;86.50;;;;;;5093161;28;20490;-38
2022/09/17 22:03:39;;;;;;;4.07;1.48;;;10.70;86.70;;;;;;5093132;28;20021;-38
2022/09/17 22:06:07;;;;;;;8.98;1.75;;;10.70;86.80;;;;;;5093188;28;20484;-39
2022/09/17 22:08:36;;;;;;;5.78;1.25;;;10.70;86.90;;;;;;5093281;28;20069;-38
2022/09/17 22:11:07;;;;;;;7.15;1.52;;;10.70;87.10;;;;;;5093159;28;20077;-39
2022/09/17 22:13:33;;;;;;;11.98;1.60;;;10.70;87.00;;;;;;5092863;28;20414;-39
2022/09/17 22:16:04;;;;;;;2.55;1.02;;;10.80;86.90;;;;;;5092087;28;20028;-39
2022/09/17 22:18:31;;;;;;;7.63;1.30;;;10.80;86.80;;;;;;5093350;28;20055;-39
2022/09/17 22:20:58;;;;;;;3.25;1.02;;;10.80;86.90;;;;;;5093099;28;20020;-39
2022/09/17 22:23:25;;;;;;;10.02;2.03;;;10.80;87.10;;;;;;5093239;28;20102;-39
2022/09/17 22:26:01;;;;;;;6.82;1.33;;;10.80;87.20;;;;;;5093475;28;20031;-39
2022/09/17 22:28:27;;;;;;;5.75;1.67;;;10.70;87.60;;;;;;5093540;28;20039;-40
2022/09/17 22:30:52;;;;;;;6.65;2.40;;;10.70;87.80;;;;;;5092786;28;20036;-39
2022/09/17 22:33:18;;;;;;;4.00;1.10;;;10.60;87.90;;;;;;5092715;28;20028;-39
2022/09/17 22:35:43;;;;;;;8.75;1.70;;;10.60;88.20;;;;;;5092718;28;20024;-39
2022/09/17 22:38:09;;;;;;;8.30;1.70;;;10.60;88.20;;;;;;5093091;28;20444;-39
2022/09/17 22:40:36;;;;;;;6.82;1.05;;;10.60;88.20;;;;;;5092676;28;20016;-40
2022/09/17 22:43:01;;;;;;;6.53;1.42;;;10.60;88.20;;;;;;5092833;28;20024;-39
2022/09/17 22:45:28;;;;;;;11.98;1.85;;;10.70;88.30;;;;;;5093771;28;20353;-39
2022/09/17 22:47:53;;;;;;;10.13;1.52;;;10.60;88.40;;;;;;5096546;28;20020;-38
2022/09/17 22:50:19;;;;;;;3.80;1.20;;;10.60;88.40;;;;;;5096795;28;20024;-40
2022/09/17 22:52:48;;;;;;;3.47;1.60;;;10.60;88.50;;;;;;5096681;28;20031;-38
2022/09/17 22:55:14;;;;;;;5.55;1.80;;;10.60;88.40;;;;;;5096298;28;20089;-38
2022/09/17 22:57:40;;;;;;;5.68;1.20;;;10.70;88.40;;;;;;5095016;28;20042;-39
2022/09/17 23:00:07;;;;;;;3.80;1.35;;;10.70;88.40;;;;;;5095982;28;20040;-39
2022/09/17 23:02:34;;;;;;;6.53;1.98;;;10.70;88.50;;;;;;5096270;28;20024;-39
2022/09/17 23:04:59;;;;;;;11.38;1.48;;;10.60;88.60;;;;;;5095978;28;20035;-39
2022/09/17 23:07:25;;;;;;;7.03;1.30;;;10.60;88.80;;;;;;5096045;28;20024;-40
2022/09/17 23:09:50;;;;;;;5.75;1.17;;;10.60;88.90;;;;;;5096010;28;20025;-39
2022/09/17 23:12:19;;;;;;;3.42;1.08;;;10.60;88.80;;;;;;5097207;28;20359;-39
2022/09/17 23:14:44;;;;;;;3.50;1.00;;;10.70;88.90;;;;;;5096604;28;20031;-39
2022/09/17 23:17:10;;;;;;;10.13;2.17;;;10.70;88.80;;;;;;5096223;28;20407;-40
2022/09/17 23:19:36;;;;;;;6.35;1.20;;;10.60;89.00;;;;;;5096208;28;20043;-38
2022/09/17 23:22:02;;;;;;;3.10;1.23;;;10.60;89.00;;;;;;5096557;28;20452;-39
2022/09/17 23:24:27;;;;;;;6.38;1.65;;;10.70;89.00;;;;;;5095696;28;20016;-38
2022/09/17 23:26:53;;;;;;;6.85;1.45;;;10.70;88.90;;;;;;5096481;28;20020;-38
2022/09/17 23:29:19;;;;;;;4.13;1.95;;;10.80;88.80;;;;;;5094304;28;20047;-39
2022/09/17 23:31:44;;;;;;;10.55;1.75;;;10.80;88.70;;;;;;5095753;28;20020;-38
2022/09/17 23:34:10;;;;;;;5.60;1.48;;;10.80;88.60;;;;;;5095926;28;20119;-38
2022/09/17 23:36:37;;;;;;;15.45;1.73;;;10.80;88.60;;;;;;5095787;28;20115;-38
2022/09/17 23:39:05;;;;;;;2.95;1.50;;;10.90;88.60;;;;;;5095671;28;20422;-38
2022/09/17 23:41:36;;;;;;;7.57;1.40;;;11.00;88.40;;;;;;5095736;28;20036;-38
2022/09/17 23:44:04;;;;;;;8.82;2.58;;;11.00;88.40;;;;;;5095855;28;20091;-38
2022/09/17 23:46:32;;;;;;;9.43;2.00;;;11.00;88.40;;;;;;5095344;28;20541;-40
2022/09/17 23:48:58;;;;;;;7.82;2.55;;;11.00;88.40;;;;;;5095407;28;20518;-38
2022/09/17 23:51:26;;;;;;;8.15;1.23;;;11.10;88.50;;;;;;5095514;28;20024;-38
2022/09/17 23:53:56;;;;;;;5.30;1.30;;;11.00;88.80;;;;;;5095358;28;20476;-39
2022/09/17 23:56:25;;;;;;;5.70;1.58;;;11.00;89.10;;;;;;5095094;28;20031;-39
2022/09/17 23:58:53;;;;;;;4.65;1.83;;;10.90;89.30;;;;;;5094989;28;20087;-39
